Terminal Aerodrome Forecast
Issued by NWS

Home | Current Version | Previous Version | Text Only | Print | Product List | Glossary On
Versions: 1 2 3 4 5 6 7 8 9 10 11 12 13 14 15 16 17 18 19 20
000
FTPA31 PHFO 111136
TAFHOG
TAF
PHOG 111136Z 1112/1212 VRB04KT P6SM FEW025 SCT045
     FM112100 22010KT P6SM FEW030 SCT050
     FM120500 VRB04KT P6SM FEW030 SCT050
      AMD LTD TO VIS AND WIND TIL 111600=

USA.gov is the U.S. government's official web portal to all federal, state and local government web resources and services.